createdAt,value
2023-02-03T00:01:56.272Z,18.00
2023-02-03T00:04:22.944Z,18.58
2023-02-03T00:06:50.998Z,18.88
2023-02-03T00:09:18.525Z,18.60
2023-02-03T00:11:45.270Z,17.17
2023-02-03T00:14:12.036Z,18.95
2023-02-03T00:16:38.825Z,17.05
2023-02-03T00:19:05.553Z,17.33
2023-02-03T00:21:32.334Z,18.25
2023-02-03T00:23:59.017Z,18.02
2023-02-03T00:26:28.482Z,17.17
2023-02-03T00:28:55.150Z,17.73
2023-02-03T00:31:24.500Z,15.82
2023-02-03T00:33:58.417Z,17.15
2023-02-03T00:36:26.022Z,15.70
2023-02-03T00:38:53.299Z,17.67
2023-02-03T00:41:21.353Z,16.60
2023-02-03T00:43:49.021Z,16.75
2023-02-03T00:46:16.303Z,14.77
2023-02-03T00:48:43.066Z,16.30
2023-02-03T00:51:09.703Z,16.10
2023-02-03T00:53:36.389Z,16.67
2023-02-03T00:56:03.129Z,15.82
2023-02-03T00:58:29.958Z,14.73
2023-02-03T01:00:57.310Z,13.88
2023-02-03T01:03:24.980Z,13.27
2023-02-03T01:05:51.747Z,14.10
2023-02-03T01:08:19.514Z,14.32
2023-02-03T01:10:46.176Z,13.82
2023-02-03T01:13:13.178Z,13.73
2023-02-03T01:15:47.069Z,13.05
2023-02-03T01:18:14.139Z,14.35
2023-02-03T01:20:40.915Z,15.32
2023-02-03T01:23:07.661Z,13.90
2023-02-03T01:25:35.810Z,13.88
2023-02-03T01:28:02.512Z,13.85
2023-02-03T01:30:29.537Z,13.88
2023-02-03T01:32:56.887Z,14.18
2023-02-03T01:35:23.625Z,13.40
2023-02-03T01:37:50.280Z,12.65
2023-02-03T01:40:16.967Z,12.60
2023-02-03T01:42:43.612Z,13.02
2023-02-03T01:45:13.217Z,13.70
2023-02-03T01:47:52.711Z,11.63
2023-02-03T01:50:37.229Z,12.32
2023-02-03T01:53:10.550Z,12.48
2023-02-03T01:55:42.826Z,11.88
2023-02-03T01:58:21.353Z,13.27
2023-02-03T02:00:49.875Z,11.60
2023-02-03T02:03:18.874Z,11.55
2023-02-03T02:05:54.352Z,11.65
2023-02-03T02:08:24.923Z,12.30
2023-02-03T02:10:52.144Z,12.30
2023-02-03T02:13:19.732Z,12.80
2023-02-03T02:16:02.140Z,11.15
2023-02-03T02:18:54.840Z,10.52
2023-02-03T02:21:21.691Z,11.77
2023-02-03T02:24:30.993Z,10.85
2023-02-03T02:27:06.118Z,11.10
2023-02-03T02:29:38.826Z,11.43
2023-02-03T02:32:18.430Z,11.55
2023-02-03T02:34:45.155Z,11.20
2023-02-03T02:37:49.368Z,10.82
2023-02-03T02:40:23.923Z,11.27
2023-02-03T02:43:10.786Z,11.25
2023-02-03T02:45:55.941Z,11.02
2023-02-03T02:48:36.203Z,10.40
2023-02-03T02:51:05.893Z,10.75
2023-02-03T02:53:45.085Z,12.00
2023-02-03T02:56:15.648Z,10.68
2023-02-03T02:58:47.166Z,11.27
2023-02-03T03:01:15.779Z,10.43
2023-02-03T03:03:44.974Z,11.13
2023-02-03T03:06:35.126Z,10.38
2023-02-03T03:09:06.796Z,10.70
2023-02-03T03:11:38.695Z,10.88
2023-02-03T03:14:07.445Z,10.10
2023-02-03T03:16:37.494Z,11.15
2023-02-03T03:19:10.032Z,10.55
2023-02-03T03:21:45.506Z,10.63
2023-02-03T03:24:18.499Z,9.38
2023-02-03T03:26:57.305Z,9.38
2023-02-03T03:29:35.147Z,8.93
2023-02-03T03:32:03.102Z,10.23
2023-02-03T03:34:32.075Z,10.27
2023-02-03T03:37:19.683Z,8.88
2023-02-03T03:39:47.208Z,8.85
2023-02-03T03:42:48.699Z,9.98
2023-02-03T03:45:32.259Z,8.07
2023-02-03T03:48:19.407Z,8.57
2023-02-03T03:51:03.585Z,8.73
2023-02-03T03:53:34.563Z,8.63
2023-02-03T03:56:03.407Z,8.30
2023-02-03T03:58:31.901Z,8.40
2023-02-03T04:01:03.803Z,8.65
2023-02-03T04:03:48.613Z,7.95
2023-02-03T04:06:15.847Z,8.20
2023-02-03T04:08:42.501Z,7.28
2023-02-03T04:11:09.352Z,8.25
2023-02-03T04:13:36.069Z,7.93
2023-02-03T04:16:02.872Z,7.75
2023-02-03T04:18:29.821Z,7.53
2023-02-03T04:20:56.439Z,7.18
2023-02-03T04:23:23.109Z,7.10
2023-02-03T04:25:49.712Z,7.65
2023-02-03T04:28:16.466Z,7.50
2023-02-03T04:30:44.554Z,6.15
2023-02-03T04:33:11.401Z,6.93
2023-02-03T04:35:38.148Z,6.90
2023-02-03T04:38:04.877Z,5.90
2023-02-03T04:40:33.393Z,7.15
2023-02-03T04:43:07.255Z,6.93
2023-02-03T04:45:34.004Z,6.13
2023-02-03T04:48:00.830Z,6.53
2023-02-03T04:50:27.738Z,5.53
2023-02-03T04:52:54.556Z,5.38
2023-02-03T04:55:21.245Z,5.78
2023-02-03T04:57:47.935Z,5.13
2023-02-03T05:00:14.970Z,5.78
2023-02-03T05:02:41.636Z,5.93
2023-02-03T05:05:08.410Z,4.72
2023-02-03T05:07:35.082Z,5.10
2023-02-03T05:10:01.766Z,4.40
2023-02-03T05:12:28.426Z,4.93
2023-02-03T05:14:55.067Z,4.25
2023-02-03T05:17:21.735Z,4.97
2023-02-03T05:19:48.594Z,4.63
2023-02-03T05:22:15.316Z,4.38
2023-02-03T05:24:42.029Z,4.28
2023-02-03T05:27:08.639Z,4.95
2023-02-03T05:29:35.286Z,4.20
2023-02-03T05:32:01.999Z,4.00
2023-02-03T05:34:28.773Z,3.75
2023-02-03T05:37:05.097Z,4.38
2023-02-03T05:39:31.832Z,4.53
2023-02-03T05:41:59.151Z,4.22
2023-02-03T05:44:28.304Z,4.13
2023-02-03T05:46:58.513Z,3.30
2023-02-03T05:49:26.066Z,3.78
2023-02-03T05:51:54.348Z,3.42
2023-02-03T05:54:21.598Z,3.60
2023-02-03T05:56:48.419Z,3.47
2023-02-03T05:59:15.145Z,3.60
2023-02-03T06:01:41.873Z,3.70
2023-02-03T06:04:08.652Z,3.95
2023-02-03T06:06:35.441Z,3.92
2023-02-03T06:09:04.049Z,3.33
2023-02-03T06:11:31.620Z,3.55
2023-02-03T06:13:59.431Z,4.07
2023-02-03T06:16:27.162Z,3.25
2023-02-03T06:18:55.402Z,4.28
2023-02-03T06:21:22.569Z,4.07
2023-02-03T06:23:49.380Z,4.05
2023-02-03T06:26:16.085Z,4.13
2023-02-03T06:28:42.856Z,4.50
2023-02-03T06:31:09.789Z,4.00
2023-02-03T06:33:36.522Z,3.90
2023-02-03T06:36:03.243Z,4.47
2023-02-03T06:38:29.989Z,3.85
2023-02-03T06:40:56.659Z,5.13
2023-02-03T06:43:23.550Z,4.25
2023-02-03T06:45:50.376Z,5.72
2023-02-03T06:48:17.133Z,4.88
2023-02-03T06:50:48.301Z,5.22
2023-02-03T06:53:15.502Z,5.15
2023-02-03T06:55:42.267Z,4.60
2023-02-03T06:58:09.027Z,4.95
2023-02-03T07:00:35.727Z,4.50
2023-02-03T07:03:02.874Z,4.93
2023-02-03T07:05:29.703Z,6.53
2023-02-03T07:07:56.397Z,5.25
2023-02-03T07:10:23.108Z,6.20
2023-02-03T07:12:51.764Z,5.88
2023-02-03T07:15:18.987Z,5.55
2023-02-03T07:17:54.172Z,6.03
2023-02-03T07:20:22.369Z,6.00
2023-02-03T07:22:56.633Z,5.80
2023-02-03T07:25:24.220Z,6.03
2023-02-03T07:27:51.170Z,5.55
2023-02-03T07:30:18.013Z,6.18
2023-02-03T07:32:52.472Z,6.25
2023-02-03T07:35:19.774Z,7.38
2023-02-03T07:37:46.455Z,5.85
2023-02-03T07:40:13.727Z,6.05
2023-02-03T07:42:44.766Z,6.68
2023-02-03T07:45:13.108Z,6.40
2023-02-03T07:47:40.851Z,5.88
2023-02-03T07:50:07.892Z,6.70
2023-02-03T07:52:34.654Z,7.55
2023-02-03T07:55:01.451Z,7.75
2023-02-03T07:57:28.247Z,6.82
2023-02-03T07:59:55.101Z,6.75
2023-02-03T08:02:22.021Z,6.80
2023-02-03T08:04:48.866Z,7.43
2023-02-03T08:07:15.659Z,7.20
2023-02-03T08:09:42.304Z,7.53
2023-02-03T08:12:09.103Z,7.25
2023-02-03T08:14:35.801Z,6.85
2023-02-03T08:17:02.421Z,7.07
2023-02-03T08:19:29.291Z,6.18
2023-02-03T08:21:56.742Z,7.18
2023-02-03T08:24:23.603Z,6.75
2023-02-03T08:26:50.306Z,6.25
2023-02-03T08:29:17.044Z,6.18
2023-02-03T08:31:43.847Z,6.47
2023-02-03T08:34:10.599Z,7.13
2023-02-03T08:36:39.953Z,6.68
2023-02-03T08:39:07.273Z,6.53
2023-02-03T08:41:34.300Z,6.82
2023-02-03T08:44:01.730Z,6.10
2023-02-03T08:46:28.773Z,7.53
2023-02-03T08:48:56.501Z,6.53
2023-02-03T08:51:24.513Z,7.30
2023-02-03T08:53:51.813Z,5.90
2023-02-03T08:56:19.348Z,6.30
2023-02-03T08:58:46.304Z,6.50
2023-02-03T09:01:15.766Z,6.57
2023-02-03T09:03:42.701Z,6.25
2023-02-03T09:06:11.742Z,6.00
2023-02-03T09:08:39.651Z,6.47
2023-02-03T09:11:17.347Z,6.82
2023-02-03T09:13:45.920Z,5.90
2023-02-03T09:16:14.026Z,5.75
2023-02-03T09:18:40.750Z,6.45
2023-02-03T09:21:13.955Z,5.55
2023-02-03T09:23:47.619Z,6.05
2023-02-03T09:26:15.586Z,5.53
2023-02-03T09:28:42.555Z,6.93
2023-02-03T09:31:12.584Z,5.60
2023-02-03T09:33:39.641Z,5.07
2023-02-03T09:36:07.348Z,5.28
2023-02-03T09:38:35.016Z,5.57
2023-02-03T09:41:12.101Z,5.55
2023-02-03T09:43:48.321Z,5.97
2023-02-03T09:46:22.666Z,5.25
2023-02-03T09:49:11.796Z,5.88
2023-02-03T09:51:49.322Z,5.78
2023-02-03T09:54:21.676Z,6.00
2023-02-03T09:56:55.512Z,5.32
2023-02-03T09:59:22.975Z,5.18
2023-02-03T10:01:57.532Z,5.80
2023-02-03T10:05:00.877Z,5.40
2023-02-03T10:08:24.415Z,5.47
2023-02-03T10:11:11.054Z,4.10
2023-02-03T10:13:54.901Z,3.58
2023-02-03T10:16:50.205Z,4.70
2023-02-03T10:19:23.808Z,3.85
2023-02-03T10:21:56.115Z,3.72
2023-02-03T10:24:47.247Z,3.65
2023-02-03T10:27:19.417Z,3.33
2023-02-03T10:29:54.385Z,3.30
2023-02-03T10:32:21.158Z,2.03
2023-02-03T10:34:49.032Z,2.10
2023-02-03T10:37:41.811Z,1.65
2023-02-03T10:40:14.378Z,2.08
2023-02-03T10:43:05.981Z,1.70
2023-02-03T10:45:37.003Z,1.60
2023-02-03T10:48:06.700Z,1.58
2023-02-03T10:50:34.161Z,2.00
2023-02-03T10:53:23.448Z,1.63
2023-02-03T10:56:13.043Z,2.92
2023-02-03T10:58:47.030Z,1.85
2023-02-03T11:01:17.083Z,1.70
2023-02-03T11:03:59.492Z,2.30
2023-02-03T11:06:27.861Z,2.13
2023-02-03T11:08:55.767Z,2.20
2023-02-03T11:11:26.988Z,2.72
2023-02-03T11:14:13.093Z,2.05
2023-02-03T11:16:43.356Z,2.33
2023-02-03T11:19:22.260Z,3.22
2023-02-03T11:21:52.104Z,2.10
2023-02-03T11:24:31.751Z,7.65
2023-02-03T11:27:13.248Z,3.22
2023-02-03T11:29:49.141Z,4.60
2023-02-03T11:32:23.698Z,3.15
2023-02-03T11:35:00.198Z,3.47
2023-02-03T11:37:46.390Z,2.25
2023-02-03T11:40:25.457Z,3.03
2023-02-03T11:42:52.243Z,3.28
2023-02-03T11:45:41.792Z,2.95
2023-02-03T11:48:11.205Z,3.63
2023-02-03T11:50:54.902Z,2.65
2023-02-03T11:53:31.107Z,3.53
2023-02-03T11:56:26.328Z,2.70
2023-02-03T11:59:02.694Z,3.60
2023-02-03T12:02:05.363Z,3.58
2023-02-03T12:05:04.684Z,2.17
2023-02-03T12:07:37.636Z,3.63
2023-02-03T12:10:27.254Z,2.20
2023-02-03T12:13:19.004Z,2.10
2023-02-03T12:16:04.072Z,3.05
2023-02-03T12:19:07.484Z,2.78
2023-02-03T12:22:00.501Z,3.10
2023-02-03T12:25:06.515Z,3.15
2023-02-03T12:27:52.312Z,2.47
2023-02-03T12:30:34.956Z,3.42
2023-02-03T12:33:10.660Z,3.55
2023-02-03T12:35:45.503Z,4.22
2023-02-03T12:38:24.698Z,4.45
2023-02-03T12:40:57.858Z,3.25
2023-02-03T12:43:38.698Z,3.15
2023-02-03T12:46:19.620Z,3.53
2023-02-03T12:49:23.901Z,4.22
2023-02-03T12:52:14.215Z,3.85
2023-02-03T12:54:50.562Z,3.85
2023-02-03T12:57:32.913Z,3.00
2023-02-03T13:00:33.801Z,2.97
2023-02-03T13:03:42.951Z,1.95
2023-02-03T13:06:24.694Z,3.33
2023-02-03T13:09:35.863Z,3.30
2023-02-03T13:12:42.808Z,2.83
2023-02-03T13:15:22.688Z,2.72
2023-02-03T13:18:03.030Z,2.92
2023-02-03T13:20:36.240Z,3.25
2023-02-03T13:23:11.135Z,2.47
2023-02-03T13:26:12.513Z,3.05
2023-02-03T13:28:54.266Z,3.42
2023-02-03T13:31:39.730Z,2.88
2023-02-03T13:34:36.493Z,3.00
2023-02-03T13:37:31.820Z,3.00
2023-02-03T13:40:19.946Z,3.05
2023-02-03T13:42:53.778Z,2.40
2023-02-03T13:45:41.924Z,5.50
2023-02-03T13:48:15.069Z,2.45
2023-02-03T13:50:42.366Z,4.18
2023-02-03T13:53:22.355Z,3.60
2023-02-03T13:55:54.245Z,3.47
2023-02-03T13:58:33.167Z,2.08
2023-02-03T14:01:20.631Z,3.03
2023-02-03T14:03:47.505Z,4.55
2023-02-03T14:06:39.560Z,2.60
2023-02-03T14:09:31.489Z,2.78
2023-02-03T14:12:18.694Z,3.92
2023-02-03T14:15:03.168Z,2.85
2023-02-03T14:17:35.895Z,3.97
2023-02-03T14:20:25.863Z,2.70
2023-02-03T14:23:04.824Z,2.70
2023-02-03T14:25:33.873Z,2.58
2023-02-03T14:28:07.895Z,2.47
2023-02-03T14:31:03.266Z,3.05
2023-02-03T14:33:54.593Z,2.83
2023-02-03T14:36:54.656Z,2.47
2023-02-03T14:39:30.832Z,3.05
2023-02-03T14:41:57.505Z,2.17
2023-02-03T14:44:41.467Z,3.88
2023-02-03T14:47:28.084Z,3.28
2023-02-03T14:50:12.731Z,2.85
2023-02-03T14:53:06.913Z,2.47
2023-02-03T14:56:07.758Z,2.72
2023-02-03T14:58:41.677Z,3.95
2023-02-03T15:01:24.709Z,3.70
2023-02-03T15:04:13.444Z,2.63
2023-02-03T15:06:44.281Z,2.53
2023-02-03T15:09:37.291Z,3.72
2023-02-03T15:12:22.838Z,3.28
2023-02-03T15:14:49.804Z,2.42
2023-02-03T15:17:24.623Z,2.97
2023-02-03T15:19:52.228Z,2.80
2023-02-03T15:22:20.686Z,2.35
2023-02-03T15:24:48.690Z,2.53
2023-02-03T15:27:24.506Z,2.55
2023-02-03T15:29:51.770Z,2.40
2023-02-03T15:32:36.345Z,3.33
2023-02-03T15:35:06.961Z,1.90
2023-02-03T15:37:39.734Z,2.40
2023-02-03T15:40:19.815Z,2.63
2023-02-03T15:43:20.843Z,2.22
2023-02-03T15:46:03.699Z,2.63
2023-02-03T15:48:38.017Z,2.10
2023-02-03T15:51:10.941Z,2.88
2023-02-03T15:54:01.053Z,1.63
2023-02-03T15:56:45.477Z,2.00
2023-02-03T15:59:23.431Z,4.25
2023-02-03T16:01:51.815Z,4.30
2023-02-03T16:04:19.740Z,3.47
2023-02-03T16:06:48.845Z,3.90
2023-02-03T16:09:42.084Z,2.50
2023-02-03T16:12:21.896Z,3.75
2023-02-03T16:14:51.784Z,3.30
2023-02-03T16:17:39.249Z,2.97
2023-02-03T16:20:26.914Z,2.70
2023-02-03T16:23:33.792Z,2.38
2023-02-03T16:26:20.828Z,3.05
2023-02-03T16:29:16.287Z,4.70
2023-02-03T16:32:04.937Z,3.80
2023-02-03T16:34:50.265Z,2.88
2023-02-03T16:37:48.441Z,2.97
2023-02-03T16:40:40.496Z,2.78
2023-02-03T16:43:31.447Z,3.67
2023-02-03T16:46:18.253Z,2.80
2023-02-03T16:49:04.331Z,3.28
2023-02-03T16:51:42.171Z,2.95
2023-02-03T16:54:14.297Z,3.00
2023-02-03T16:59:07.878Z,2.88
2023-02-03T17:01:35.907Z,2.33
2023-02-03T17:04:02.983Z,2.63
2023-02-03T17:06:29.937Z,2.78
2023-02-03T17:08:58.745Z,2.38
2023-02-03T17:11:27.023Z,5.40
2023-02-03T17:13:54.596Z,4.97
2023-02-03T17:16:24.544Z,3.63
2023-02-03T17:18:51.644Z,2.75
2023-02-03T17:21:25.354Z,4.03
2023-02-03T17:23:52.312Z,2.10
2023-02-03T17:26:19.475Z,2.80
2023-02-03T17:28:46.140Z,3.17
2023-02-03T17:31:16.406Z,2.50
2023-02-03T17:33:43.710Z,2.17
2023-02-03T17:36:13.725Z,2.00
2023-02-03T17:55:19.013Z,3.38
2023-02-03T17:57:45.828Z,2.95
2023-02-03T18:00:12.992Z,2.70
2023-02-03T18:02:39.929Z,2.03
2023-02-03T18:05:07.102Z,2.90
2023-02-03T18:07:33.755Z,2.35
2023-02-03T18:10:00.438Z,3.17
2023-02-03T18:12:27.595Z,3.70
2023-02-03T18:14:54.252Z,2.83
2023-02-03T18:17:20.890Z,4.00
2023-02-03T18:19:54.749Z,3.05
2023-02-03T18:22:22.268Z,3.28
2023-02-03T18:24:52.274Z,2.58
2023-02-03T18:27:19.657Z,3.42
2023-02-03T18:29:47.346Z,3.05
2023-02-03T18:32:15.316Z,2.17
2023-02-03T18:34:42.146Z,2.03
2023-02-03T18:37:09.105Z,2.35
2023-02-03T18:39:35.979Z,3.10
2023-02-03T18:42:03.160Z,2.97
2023-02-03T18:44:31.518Z,2.55
2023-02-03T18:47:06.526Z,2.72
2023-02-03T18:49:35.449Z,3.33
2023-02-03T18:52:02.224Z,4.28
2023-02-03T18:54:29.672Z,2.80
2023-02-03T18:56:58.873Z,3.83
2023-02-03T18:59:25.926Z,3.20
2023-02-03T19:01:52.967Z,3.38
2023-02-03T19:04:20.015Z,2.83
2023-02-03T19:06:47.513Z,2.75
2023-02-03T19:09:17.007Z,2.58
2023-02-03T19:11:45.158Z,3.22
2023-02-03T19:14:13.542Z,2.38
2023-02-03T19:16:40.564Z,2.85
2023-02-03T19:19:07.248Z,2.90
2023-02-03T19:21:33.975Z,1.90
2023-02-03T19:24:01.509Z,2.70
2023-02-03T19:26:28.295Z,3.28
2023-02-03T19:28:56.004Z,2.92
2023-02-03T19:31:23.155Z,3.15
2023-02-03T19:33:49.970Z,2.88
2023-02-03T19:36:17.027Z,3.50
2023-02-03T19:38:43.710Z,3.00
2023-02-03T19:41:11.675Z,2.60
2023-02-03T19:43:39.858Z,3.30
2023-02-03T19:46:07.101Z,2.40
2023-02-03T19:48:34.038Z,3.17
2023-02-03T19:51:00.700Z,2.22
2023-02-03T19:53:27.599Z,3.20
2023-02-03T19:55:54.544Z,2.72
2023-02-03T19:58:21.268Z,3.25
2023-02-03T20:00:50.668Z,3.40
2023-02-03T20:03:18.181Z,3.25
2023-02-03T20:05:45.273Z,3.97
2023-02-03T20:08:14.356Z,2.97
2023-02-03T20:10:44.478Z,2.75
2023-02-03T20:13:14.846Z,2.80
2023-02-03T20:15:41.941Z,3.88
2023-02-03T20:18:08.885Z,1.95
2023-02-03T20:20:36.097Z,2.65
2023-02-03T20:23:03.010Z,3.65
2023-02-03T20:25:29.761Z,3.20
2023-02-03T20:27:58.087Z,2.50
2023-02-03T20:30:25.172Z,2.97
2023-02-03T20:32:54.569Z,2.85
2023-02-03T20:35:23.514Z,3.85
2023-02-03T20:37:51.103Z,2.75
2023-02-03T20:40:19.186Z,6.15
2023-02-03T20:42:47.316Z,4.95
2023-02-03T20:45:19.584Z,3.30
2023-02-03T20:47:47.143Z,4.43
2023-02-03T20:50:18.266Z,3.35
2023-02-03T20:52:46.859Z,4.55
2023-02-03T20:55:16.096Z,3.60
2023-02-03T20:57:44.373Z,2.63
2023-02-03T21:00:17.468Z,3.53
2023-02-03T21:03:04.123Z,4.00
2023-02-03T21:05:45.304Z,2.85
2023-02-03T21:08:17.588Z,2.70
2023-02-03T21:10:45.461Z,3.85
2023-02-03T21:13:26.939Z,2.97
2023-02-03T21:15:56.193Z,3.53
2023-02-03T21:18:29.634Z,2.67
2023-02-03T21:20:57.037Z,3.60
2023-02-03T21:23:28.042Z,3.00
2023-02-03T21:25:54.879Z,2.72
2023-02-03T21:28:26.494Z,2.80
2023-02-03T21:30:54.057Z,3.08
2023-02-03T21:33:41.717Z,4.00
2023-02-03T21:36:20.232Z,4.47
2023-02-03T21:38:56.689Z,3.17
2023-02-03T21:41:25.402Z,2.83
2023-02-03T21:43:57.132Z,2.78
2023-02-03T21:46:26.567Z,2.63
2023-02-03T21:48:58.501Z,3.38
2023-02-03T21:51:35.547Z,3.17
2023-02-03T21:54:23.309Z,2.70
2023-02-03T21:56:54.070Z,3.80
2023-02-03T21:59:42.179Z,2.83
2023-02-03T22:02:44.520Z,2.80
2023-02-03T22:05:16.450Z,2.80
2023-02-03T22:07:43.098Z,3.05
2023-02-03T22:10:09.997Z,3.42
2023-02-03T22:12:36.727Z,2.95
2023-02-03T22:15:03.634Z,3.15
2023-02-03T22:17:30.520Z,5.18
2023-02-03T22:19:57.246Z,3.53
2023-02-03T22:22:24.139Z,4.22
2023-02-03T22:24:50.932Z,2.92
2023-02-03T22:27:18.468Z,2.70
2023-02-03T22:29:45.798Z,3.83
2023-02-03T22:32:12.466Z,3.60
2023-02-03T22:34:39.160Z,3.55
2023-02-03T22:37:05.760Z,2.85
2023-02-03T22:39:32.470Z,3.30
2023-02-03T22:41:59.136Z,2.53
2023-02-03T22:44:25.782Z,4.53
2023-02-03T22:46:52.397Z,2.45
2023-02-03T22:49:19.094Z,2.85
2023-02-03T22:51:46.689Z,2.65
2023-02-03T22:54:13.307Z,2.75
2023-02-03T22:56:39.984Z,4.20
2023-02-03T22:59:06.609Z,2.65
2023-02-03T23:01:34.449Z,2.95
2023-02-03T23:04:01.169Z,3.30
2023-02-03T23:06:27.776Z,2.35
2023-02-03T23:08:55.496Z,3.75
2023-02-03T23:11:22.158Z,2.28
2023-02-03T23:13:49.419Z,3.55
2023-02-03T23:16:16.126Z,3.33
2023-02-03T23:18:42.992Z,5.30
2023-02-03T23:21:09.663Z,3.10
2023-02-03T23:23:36.282Z,3.33
2023-02-03T23:26:02.961Z,3.03
2023-02-03T23:28:29.610Z,3.42
2023-02-03T23:30:56.432Z,3.25
2023-02-03T23:33:23.262Z,3.15
2023-02-03T23:35:50.692Z,2.38
2023-02-03T23:38:19.128Z,3.25
2023-02-03T23:40:45.869Z,2.78
2023-02-03T23:43:12.568Z,3.00
2023-02-03T23:45:39.561Z,2.95
2023-02-03T23:48:06.429Z,2.92
2023-02-03T23:50:33.387Z,3.40
2023-02-03T23:53:00.213Z,2.67
2023-02-03T23:55:26.962Z,3.03
2023-02-03T23:57:53.602Z,2.85
